createdAt,value
2023-01-21T00:02:12.270Z,51.27
2023-01-21T00:07:16.736Z,46.33
2023-01-21T00:12:21.739Z,46.27
2023-01-21T00:17:23.430Z,45.40
2023-01-21T00:22:25.144Z,42.57
2023-01-21T00:27:26.826Z,42.00
2023-01-21T00:32:30.831Z,43.70
2023-01-21T00:37:35.049Z,40.13
2023-01-21T00:42:37.348Z,43.47
2023-01-21T00:47:41.962Z,41.80
2023-01-21T00:52:51.349Z,44.10
2023-01-21T00:58:00.244Z,41.03
2023-01-21T01:03:04.923Z,41.43
2023-01-21T01:08:08.720Z,42.87
2023-01-21T01:13:17.180Z,42.97
2023-01-21T01:18:19.812Z,39.43
2023-01-21T01:23:23.855Z,40.00
2023-01-21T01:28:25.763Z,45.03
2023-01-21T01:33:27.919Z,49.53
2023-01-21T01:38:29.875Z,58.23
2023-01-21T01:43:53.574Z,48.67
2023-01-21T01:49:20.115Z,56.00
2023-01-21T01:54:25.018Z,61.77
2023-01-21T01:59:29.332Z,57.40
2023-01-21T02:04:38.171Z,65.13
2023-01-21T02:09:49.928Z,55.20
2023-01-21T02:15:02.796Z,55.47
2023-01-21T02:20:30.154Z,64.80
2023-01-21T02:25:41.518Z,55.00
2023-01-21T02:31:31.159Z,62.67
2023-01-21T02:36:48.758Z,68.93
2023-01-21T02:42:03.043Z,58.90
2023-01-21T02:47:16.088Z,74.57
2023-01-21T02:52:22.005Z,56.63
2023-01-21T02:57:38.091Z,69.47
2023-01-21T03:03:11.361Z,69.67
2023-01-21T03:08:17.821Z,87.80
2023-01-21T03:13:45.850Z,73.53
2023-01-21T03:18:55.237Z,66.23
2023-01-21T03:24:01.236Z,76.10
2023-01-21T03:29:09.954Z,63.20
2023-01-21T03:34:18.555Z,70.77
2023-01-21T03:39:41.772Z,66.57
2023-01-21T03:44:43.751Z,68.93
2023-01-21T03:49:53.175Z,68.47
2023-01-21T03:54:57.004Z,66.07
2023-01-21T04:00:03.939Z,66.17
2023-01-21T04:05:07.759Z,66.67
2023-01-21T04:10:12.009Z,81.13
2023-01-21T04:15:23.264Z,69.27
2023-01-21T04:20:30.318Z,94.73
2023-01-21T04:25:37.393Z,95.97
2023-01-21T04:30:42.214Z,100.33
2023-01-21T04:35:47.102Z,86.33
2023-01-21T04:40:51.255Z,76.10
2023-01-21T04:45:57.302Z,81.37
2023-01-21T04:51:01.370Z,73.20
2023-01-21T04:56:08.460Z,89.30
2023-01-21T05:01:10.184Z,84.43
2023-01-21T05:06:14.799Z,84.43
2023-01-21T05:11:18.266Z,83.07
2023-01-21T05:16:23.234Z,92.93
2023-01-21T05:21:24.997Z,77.57
2023-01-21T05:26:28.934Z,84.87
2023-01-21T05:31:33.104Z,78.10
2023-01-21T05:36:39.763Z,99.20
2023-01-21T05:41:42.207Z,81.73
2023-01-21T05:46:43.915Z,92.57
2023-01-21T05:51:50.345Z,142.87
2023-01-21T05:56:52.304Z,128.73
2023-01-21T06:01:54.006Z,120.20
2023-01-21T06:06:55.804Z,108.47
2023-01-21T06:11:57.552Z,104.43
2023-01-21T06:17:02.553Z,111.67
2023-01-21T06:22:04.687Z,107.90
2023-01-21T06:27:06.383Z,98.87
2023-01-21T06:32:15.298Z,88.03
2023-01-21T06:37:22.564Z,80.67
2023-01-21T06:42:24.278Z,90.20
2023-01-21T06:47:28.270Z,82.60
2023-01-21T06:52:29.964Z,90.50
2023-01-21T06:57:36.513Z,84.20
2023-01-21T07:02:40.522Z,89.53
2023-01-21T07:07:44.531Z,81.80
2023-01-21T07:12:51.060Z,62.67
2023-01-21T07:17:57.627Z,62.27
2023-01-21T07:23:01.705Z,54.60
2023-01-21T07:28:05.730Z,60.97
2023-01-21T07:33:08.760Z,62.53
2023-01-21T07:38:10.463Z,71.13
2023-01-21T07:43:14.527Z,59.57
2023-01-21T07:48:18.780Z,55.73
2023-01-21T07:53:22.664Z,56.83
2023-01-21T07:58:24.482Z,61.50
2023-01-21T08:03:30.609Z,48.07
2023-01-21T08:08:35.518Z,55.83
2023-01-21T08:13:40.247Z,38.53
2023-01-21T08:18:45.885Z,41.03
2023-01-21T08:23:55.992Z,41.53
2023-01-21T08:29:00.979Z,40.77
2023-01-21T08:34:05.957Z,28.40
2023-01-21T08:39:15.724Z,27.87
2023-01-21T08:44:17.619Z,26.77
2023-01-21T08:49:24.470Z,22.23
2023-01-21T08:54:26.510Z,10.80
2023-01-21T08:59:33.157Z,9.17
2023-01-21T09:04:40.880Z,14.30
2023-01-21T09:09:42.558Z,11.30
2023-01-21T09:14:49.124Z,12.17
2023-01-21T09:19:51.064Z,9.10
2023-01-21T09:24:58.255Z,4.87
2023-01-21T09:30:00.008Z,6.27
2023-01-21T09:35:04.951Z,5.47
2023-01-21T09:40:09.280Z,4.53
2023-01-21T09:45:13.790Z,7.17
2023-01-21T09:50:24.167Z,7.23
2023-01-21T09:55:36.371Z,9.00
2023-01-21T10:01:02.065Z,9.10
2023-01-21T10:06:35.774Z,9.00
2023-01-21T10:11:53.171Z,8.93
2023-01-21T10:17:13.213Z,22.30
2023-01-21T10:22:23.264Z,30.57
2023-01-21T10:27:33.125Z,30.17
2023-01-21T10:32:39.427Z,34.03
2023-01-21T10:37:49.895Z,29.67
2023-01-21T10:43:03.574Z,26.20
2023-01-21T10:48:19.666Z,25.43
2023-01-21T10:54:12.301Z,29.43
2023-01-21T10:59:23.191Z,25.83
2023-01-21T11:04:29.621Z,32.07
2023-01-21T11:09:37.556Z,40.13
2023-01-21T11:14:41.593Z,52.33
2023-01-21T11:20:01.594Z,39.20
2023-01-21T11:25:29.396Z,24.03
2023-01-21T11:30:58.272Z,24.23
2023-01-21T11:36:15.629Z,28.63
2023-01-21T11:41:22.449Z,24.27
2023-01-21T11:46:39.953Z,22.13
2023-01-21T11:51:45.465Z,21.13
2023-01-21T11:56:56.507Z,30.13
2023-01-21T12:02:12.480Z,31.53
2023-01-21T12:07:25.122Z,23.87
2023-01-21T12:13:15.452Z,28.57
2023-01-21T12:18:47.029Z,30.20
2023-01-21T12:24:09.965Z,28.93
2023-01-21T12:29:11.797Z,26.50
2023-01-21T12:34:33.319Z,31.80
2023-01-21T12:39:38.348Z,30.67
2023-01-21T12:44:44.928Z,24.80
2023-01-21T12:50:05.708Z,24.70
2023-01-21T12:55:07.863Z,22.57
2023-01-21T13:00:29.487Z,21.83
2023-01-21T13:05:47.980Z,21.87
2023-01-21T13:10:55.754Z,24.63
2023-01-21T13:16:08.490Z,24.93
2023-01-21T13:21:28.464Z,24.20
2023-01-21T13:26:42.500Z,22.10
2023-01-21T13:31:51.941Z,22.70
2023-01-21T13:37:03.904Z,25.23
2023-01-21T13:42:17.801Z,24.47
2023-01-21T13:47:46.539Z,22.07
2023-01-21T13:53:09.610Z,25.53
2023-01-21T13:58:21.175Z,26.73
2023-01-21T14:03:38.016Z,25.73
2023-01-21T14:08:43.042Z,25.17
2023-01-21T14:14:09.720Z,25.23
2023-01-21T14:19:25.602Z,29.97
2023-01-21T14:24:51.213Z,37.80
2023-01-21T14:30:03.497Z,36.23
2023-01-21T14:35:31.980Z,31.53
2023-01-21T14:40:37.502Z,46.17
2023-01-21T14:45:55.682Z,38.53
2023-01-21T14:51:17.826Z,44.47
2023-01-21T14:57:10.296Z,35.20
2023-01-21T15:02:32.311Z,28.50
2023-01-21T15:07:39.278Z,31.10
2023-01-21T15:13:25.675Z,30.47
2023-01-21T15:18:37.875Z,37.10
2023-01-21T15:23:42.831Z,36.93
2023-01-21T15:28:58.080Z,34.47
2023-01-21T15:34:03.012Z,35.60
2023-01-21T15:39:13.503Z,38.13
2023-01-21T15:44:55.046Z,37.27
2023-01-21T15:50:16.573Z,38.67
2023-01-21T15:55:34.282Z,41.87
2023-01-21T16:01:05.465Z,45.33
2023-01-21T16:06:19.411Z,42.20
2023-01-21T16:11:32.988Z,44.70
2023-01-21T16:17:06.911Z,63.90
2023-01-21T16:22:22.973Z,62.93
2023-01-21T16:27:32.466Z,60.70
2023-01-21T16:32:34.966Z,58.20
2023-01-21T16:37:39.636Z,54.73
2023-01-21T16:42:45.182Z,51.93
2023-01-21T16:48:00.697Z,53.30
2023-01-21T16:53:06.683Z,52.40
2023-01-21T16:58:29.632Z,52.63
2023-01-21T17:03:32.396Z,42.73
2023-01-21T17:08:35.494Z,41.45
2023-01-21T17:13:40.584Z,38.53
2023-01-21T17:18:51.960Z,38.23
2023-01-21T17:24:03.455Z,36.30
2023-01-21T17:29:19.851Z,42.33
2023-01-21T17:34:30.771Z,40.60
2023-01-21T17:39:50.409Z,40.60
2023-01-21T17:44:55.063Z,44.83
2023-01-21T17:50:21.412Z,38.80
2023-01-21T17:55:33.173Z,46.20
2023-01-21T18:00:45.469Z,47.37
2023-01-21T18:05:51.546Z,47.53
2023-01-21T18:10:57.639Z,48.43
2023-01-21T18:16:04.196Z,44.57
2023-01-21T18:21:06.905Z,41.13
2023-01-21T18:26:27.696Z,43.30
2023-01-21T18:31:32.628Z,40.40
2023-01-21T18:36:39.340Z,39.57
2023-01-21T18:41:47.004Z,34.23
2023-01-21T18:46:48.767Z,32.90
2023-01-21T18:51:50.491Z,31.10
2023-01-21T18:56:52.317Z,29.33
2023-01-21T19:01:54.128Z,26.73
2023-01-21T19:06:57.338Z,24.90
2023-01-21T19:12:07.619Z,26.43
2023-01-21T19:17:13.792Z,35.27
2023-01-21T19:22:15.731Z,28.73
2023-01-21T19:27:28.328Z,28.77
2023-01-21T19:32:30.077Z,23.97
2023-01-21T19:37:31.825Z,25.97
2023-01-21T19:42:38.444Z,25.93
2023-01-21T19:47:44.770Z,25.83
2023-01-21T19:52:51.740Z,25.37
2023-01-21T19:57:58.662Z,27.13
2023-01-21T20:03:02.843Z,30.20
2023-01-21T20:08:07.705Z,31.97
2023-01-21T20:13:13.880Z,40.97
2023-01-21T20:18:24.527Z,41.83
2023-01-21T20:23:26.836Z,42.60
2023-01-21T20:28:40.581Z,49.50
2023-01-21T20:33:44.154Z,47.93
2023-01-21T20:38:46.168Z,43.00
2023-01-21T20:43:53.333Z,36.00
2023-01-21T20:48:56.049Z,29.53
2023-01-21T20:54:00.505Z,38.50
2023-01-21T20:59:08.658Z,41.00
2023-01-21T21:04:12.701Z,46.67
2023-01-21T21:09:22.105Z,35.30
2023-01-21T21:14:24.025Z,26.10
2023-01-21T21:19:29.074Z,31.93
2023-01-21T21:24:34.291Z,29.47
2023-01-21T21:29:39.018Z,26.07
2023-01-21T21:34:41.009Z,23.37
2023-01-21T21:39:42.726Z,18.27
2023-01-21T21:44:51.092Z,23.77
2023-01-21T21:49:55.062Z,19.90
2023-01-21T21:54:56.799Z,25.80
2023-01-21T22:00:02.749Z,13.77
2023-01-21T22:05:11.509Z,15.23
2023-01-21T22:10:15.469Z,12.00
2023-01-21T22:15:21.761Z,13.13
2023-01-21T22:20:28.074Z,12.43
2023-01-21T22:25:33.189Z,11.67
2023-01-21T22:30:42.900Z,13.33
2023-01-21T22:35:46.926Z,11.70
2023-01-21T22:40:55.166Z,9.37
2023-01-21T22:45:59.947Z,12.97
2023-01-21T22:51:04.484Z,9.20
2023-01-21T22:56:11.567Z,12.33
2023-01-21T23:01:31.705Z,12.10
2023-01-21T23:06:33.496Z,8.87
2023-01-21T23:11:41.573Z,9.77
2023-01-21T23:16:45.617Z,11.17
2023-01-21T23:21:49.390Z,10.33
2023-01-21T23:26:53.635Z,10.73
2023-01-21T23:31:57.718Z,10.27
2023-01-21T23:37:04.121Z,11.40
2023-01-21T23:42:10.608Z,9.93
2023-01-21T23:47:12.329Z,10.90
2023-01-21T23:52:18.715Z,12.47
2023-01-21T23:57:22.655Z,10.80
